Time;durP1;ratioP1;P1;durP2;ratioP2;P2;SDS_P1;SDS_P2;PMS_P1;PMS_P2;Temp;Humidity;BMP_temperature;BMP_pressure;BME280_temperature;BME280_humidity;BME280_pressure;Samples;Min_cycle;Max_cycle;Signal;HPM_P1;HPM_P2
2022/11/24 00:02:16;;;;;;;257.47;107.83;;;;;;;;;;4983863;28;20640;-54
2022/11/24 00:04:42;;;;;;;525.87;188.27;;;;;;;;;;4991517;28;20223;-55
2022/11/24 00:07:11;;;;;;;377.07;146.03;;;;;;;;;;4989216;28;20218;-54
2022/11/24 00:09:37;;;;;;;575.73;225.07;;;;;;;;;;4991762;28;20267;-54
2022/11/24 00:12:03;;;;;;;247.30;110.23;;;;;;;;;;5027899;28;20197;-54
2022/11/24 00:14:29;;;;;;;420.77;169.90;;;;;;;;;;4994478;28;20213;-54
2022/11/24 00:16:55;;;;;;;458.90;162.57;;;;;;;;;;4978615;28;20259;-53
2022/11/24 00:19:22;;;;;;;518.03;188.10;;;;;;;;;;4990071;28;20287;-53
2022/11/24 00:21:47;;;;;;;633.80;245.73;;;;;;;;;;4981851;28;20411;-54
2022/11/24 00:24:14;;;;;;;276.93;114.97;;;;;;;;;;4986818;28;20207;-54
2022/11/24 00:26:40;;;;;;;486.47;194.47;;;;;;;;;;4976580;28;20722;-56
2022/11/24 00:29:07;;;;;;;335.43;124.07;;;;;;;;;;4988162;28;20212;-54
2022/11/24 00:31:34;;;;;;;352.83;126.47;;;;;;;;;;4987761;28;20249;-54
2022/11/24 00:34:02;;;;;;;458.50;162.70;;;;;;;;;;4987221;28;20243;-55
2022/11/24 00:36:29;;;;;;;399.60;155.10;;;;;;;;;;5000163;28;20263;-54
2022/11/24 00:38:56;;;;;;;443.73;170.47;;;;;;;;;;5008568;28;20254;-54
2022/11/24 00:41:23;;;;;;;343.17;121.93;;;;;;;;;;5005552;28;20254;-54
2022/11/24 00:43:49;;;;;;;529.90;181.87;;;;;;;;;;5006072;28;20255;-54
2022/11/24 00:46:15;;;;;;;382.10;119.07;;;;;;;;;;5002838;28;20605;-54
2022/11/24 00:48:41;;;;;;;357.67;115.30;;;;;;;;;;5005729;28;21036;-54
2022/11/24 00:51:09;;;;;;;488.27;150.40;;;;;;;;;;5018442;28;20241;-54
2022/11/24 00:53:38;;;;;;;476.30;157.57;;;;;;;;;;5007588;28;20281;-54
2022/11/24 00:56:04;;;;;;;221.93;93.10;;;;;;;;;;5008350;28;20342;-54
2022/11/24 00:58:31;;;;;;;323.33;112.60;;;;;;;;;;5004735;28;20802;-54
2022/11/24 01:01:01;;;;;;;442.03;145.53;;;;;;;;;;5006132;28;20242;-54
2022/11/24 01:03:27;;;;;;;242.47;98.27;;;;;;;;;;5003100;28;20668;-55
2022/11/24 01:05:53;;;;;;;407.27;143.53;;;;;;;;;;5004016;28;20211;-54
2022/11/24 01:08:19;;;;;;;266.80;101.70;;;;;;;;;;5000641;28;20751;-54
2022/11/24 01:10:45;;;;;;;415.70;144.63;;;;;;;;;;4997011;28;20689;-54
2022/11/24 01:13:12;;;;;;;292.27;112.57;;;;;;;;;;5002187;28;20231;-54
2022/11/24 01:15:39;;;;;;;412.97;141.50;;;;;;;;;;5017407;28;20731;-53
2022/11/24 01:18:05;;;;;;;442.67;163.43;;;;;;;;;;4997082;28;21271;-54
2022/11/24 01:20:32;;;;;;;261.63;106.93;;;;;;;;;;5013788;28;21289;-53
2022/11/24 01:22:58;;;;;;;395.07;148.83;;;;;;;;;;5013858;28;20219;-54
2022/11/24 01:25:23;;;;;;;342.40;132.20;;;;;;;;;;5005788;28;20230;-53
2022/11/24 01:27:50;;;;;;;316.27;124.27;;;;;;;;;;5016409;28;20582;-54
2022/11/24 01:30:16;;;;;;;294.27;117.07;;;;;;;;;;5012260;28;20219;-54
2022/11/24 01:32:42;;;;;;;400.17;142.73;;;;;;;;;;5004020;28;20216;-53
2022/11/24 01:35:08;;;;;;;366.13;129.23;;;;;;;;;;5006157;28;20212;-53
2022/11/24 01:37:35;;;;;;;390.70;156.77;;;;;;;;;;5002413;28;20382;-54
2022/11/24 01:40:01;;;;;;;431.37;160.47;;;;;;;;;;5012985;28;20215;-54
2022/11/24 01:42:36;;;;;;;394.47;143.00;;;;;;;;;;5006892;28;20204;-54
2022/11/24 01:45:21;;;;;;;421.30;162.33;;;;;;;;;;5010879;28;20184;-54
2022/11/24 01:47:47;;;;;;;380.17;147.40;;;;;;;;;;5009652;28;20224;-54
2022/11/24 01:50:15;;;;;;;484.10;179.67;;;;;;;;;;5008903;28;20314;-54
2022/11/24 01:52:44;;;;;;;424.60;157.87;;;;;;;;;;5014128;28;20872;-53
2022/11/24 01:55:13;;;;;;;412.60;154.13;;;;;;;;;;5005214;28;20228;-53
2022/11/24 01:57:42;;;;;;;312.50;123.03;;;;;;;;;;4991886;28;20286;-54
2022/11/24 02:00:10;;;;;;;437.20;162.60;;;;;;;;;;4991103;28;20487;-53
2022/11/24 02:02:36;;;;;;;319.77;132.57;;;;;;;;;;4982795;28;22229;-54
2022/11/24 02:05:13;;;;;;;411.97;162.33;;;;;;;;;;4995655;28;20319;-54
2022/11/24 02:07:39;;;;;;;290.23;124.43;;;;;;;;;;4995002;28;20322;-54
2022/11/24 02:10:11;;;;;;;449.53;175.57;;;;;;;;;;4991145;28;20220;-54
2022/11/24 02:12:38;;;;;;;467.17;183.90;;;;;;;;;;4987640;28;20802;-53
2022/11/24 02:15:05;;;;;;;454.53;171.07;;;;;;;;;;4979935;28;21113;-54
2022/11/24 02:17:31;;;;;;;554.47;213.57;;;;;;;;;;4989434;28;20217;-54
2022/11/24 02:20:01;;;;;;;446.47;171.13;;;;;;;;;;4991612;28;20608;-54
2022/11/24 02:22:30;;;;;;;523.07;212.77;;;;;;;;;;4986239;28;20236;-54
2022/11/24 02:24:59;;;;;;;489.90;171.13;;;;;;;;;;4987343;28;20213;-53
2022/11/24 02:27:25;;;;;;;571.67;230.77;;;;;;;;;;4981691;28;20192;-53
2022/11/24 02:29:52;;;;;;;366.60;127.17;;;;;;;;;;4991772;28;20189;-53
2022/11/24 02:32:18;;;;;;;470.73;182.73;;;;;;;;;;4989717;28;20224;-54
2022/11/24 02:34:44;;;;;;;427.97;167.20;;;;;;;;;;4984812;28;20697;-54
2022/11/24 02:37:10;;;;;;;220.23;70.87;;;;;;;;;;4991908;28;20209;-54
2022/11/24 02:39:36;;;;;;;306.60;91.23;;;;;;;;;;4987088;28;20224;-54
2022/11/24 02:42:07;;;;;;;372.17;101.77;;;;;;;;;;4992890;28;20219;-54
2022/11/24 02:44:36;;;;;;;320.53;94.80;;;;;;;;;;4990171;28;20216;-54
2022/11/24 02:47:03;;;;;;;345.57;107.67;;;;;;;;;;4983058;28;20273;-54
2022/11/24 02:49:29;;;;;;;326.93;102.40;;;;;;;;;;4990788;28;20228;-54
2022/11/24 02:51:55;;;;;;;498.20;160.67;;;;;;;;;;5007735;28;20331;-54
2022/11/24 02:54:22;;;;;;;330.53;125.03;;;;;;;;;;4994889;28;20219;-54
2022/11/24 02:56:48;;;;;;;586.37;231.37;;;;;;;;;;4986097;28;20185;-54
2022/11/24 02:59:14;;;;;;;227.40;84.20;;;;;;;;;;4987316;28;20217;-54
2022/11/24 03:01:40;;;;;;;268.47;87.23;;;;;;;;;;4991002;28;20227;-53
2022/11/24 03:04:06;;;;;;;375.27;125.37;;;;;;;;;;5010039;28;20320;-54
2022/11/24 03:06:32;;;;;;;198.33;81.17;;;;;;;;;;5003380;28;20276;-54
2022/11/24 03:08:58;;;;;;;424.60;146.70;;;;;;;;;;4996701;28;20303;-53
2022/11/24 03:11:24;;;;;;;387.67;157.27;;;;;;;;;;4987038;28;20212;-54
2022/11/24 03:13:50;;;;;;;528.90;211.97;;;;;;;;;;4988703;28;20217;-54
2022/11/24 03:16:16;;;;;;;204.63;49.23;;;;;;;;;;4986663;28;20576;-54
2022/11/24 03:18:42;;;;;;;330.43;69.63;;;;;;;;;;4989068;28;20212;-54
2022/11/24 03:21:08;;;;;;;526.53;122.17;;;;;;;;;;4984774;28;20207;-54
2022/11/24 03:23:34;;;;;;;372.33;86.67;;;;;;;;;;4988374;28;20271;-53
2022/11/24 03:26:09;;;;;;;324.87;70.93;;;;;;;;;;4996490;28;20221;-55
2022/11/24 03:28:35;;;;;;;184.33;40.13;;;;;;;;;;4996180;28;20251;-54
2022/11/24 03:31:02;;;;;;;283.10;64.47;;;;;;;;;;5010942;28;20307;-54
2022/11/24 03:33:28;;;;;;;173.50;40.70;;;;;;;;;;4996885;28;20745;-54
2022/11/24 03:35:54;;;;;;;364.97;79.07;;;;;;;;;;4993622;28;20241;-54
2022/11/24 03:38:20;;;;;;;327.60;71.63;;;;;;;;;;5003571;28;20213;-54
2022/11/24 03:40:49;;;;;;;234.47;50.67;;;;;;;;;;4991011;28;20271;-54
2022/11/24 03:43:15;;;;;;;386.43;83.83;;;;;;;;;;4997183;28;20219;-54
2022/11/24 03:45:44;;;;;;;337.07;69.47;;;;;;;;;;4996262;28;20220;-54
2022/11/24 03:48:11;;;;;;;466.20;95.37;;;;;;;;;;4985943;28;20688;-54
2022/11/24 03:50:40;;;;;;;349.23;75.80;;;;;;;;;;5004224;28;20270;-54
2022/11/24 03:53:06;;;;;;;444.73;103.37;;;;;;;;;;4991948;28;20700;-54
2022/11/24 03:55:32;;;;;;;244.70;54.93;;;;;;;;;;4980123;28;20224;-54
2022/11/24 03:57:58;;;;;;;307.47;71.47;;;;;;;;;;4984106;28;20573;-54
2022/11/24 04:00:24;;;;;;;376.20;86.30;;;;;;;;;;4987786;28;20667;-54
2022/11/24 04:02:50;;;;;;;288.90;62.23;;;;;;;;;;4990491;28;20258;-54
2022/11/24 04:05:16;;;;;;;451.37;94.57;;;;;;;;;;4996757;28;20204;-57
2022/11/24 04:07:42;;;;;;;184.07;40.90;;;;;;;;;;4990780;28;20212;-54
2022/11/24 04:10:08;;;;;;;299.10;64.03;;;;;;;;;;4997095;28;20213;-54
2022/11/24 04:12:43;;;;;;;197.67;44.33;;;;;;;;;;4986617;28;20283;-54
2022/11/24 04:15:10;;;;;;;459.27;111.63;;;;;;;;;;4988943;28;20220;-54
2022/11/24 04:17:36;;;;;;;408.43;93.83;;;;;;;;;;4978706;28;22369;-54
2022/11/24 04:20:03;;;;;;;452.17;105.37;;;;;;;;;;4984247;28;20427;-54
2022/11/24 04:22:29;;;;;;;229.60;51.80;;;;;;;;;;4986164;28;20217;-54
2022/11/24 04:24:55;;;;;;;285.47;67.27;;;;;;;;;;4987443;28;20201;-53
2022/11/24 04:27:21;;;;;;;425.00;100.17;;;;;;;;;;4987687;28;20175;-54
2022/11/24 04:29:50;;;;;;;367.30;80.10;;;;;;;;;;4973548;28;21391;-54
2022/11/24 04:32:16;;;;;;;356.03;81.97;;;;;;;;;;4979472;28;20224;-54
2022/11/24 04:34:42;;;;;;;262.83;60.30;;;;;;;;;;4994968;28;20710;-54
2022/11/24 04:37:08;;;;;;;329.17;72.90;;;;;;;;;;4998685;28;20217;-54
2022/11/24 04:39:34;;;;;;;185.60;43.80;;;;;;;;;;4991268;28;20185;-54
2022/11/24 04:42:00;;;;;;;414.63;85.60;;;;;;;;;;4994435;28;20251;-54
2022/11/24 04:44:26;;;;;;;483.37;106.80;;;;;;;;;;4985474;28;20225;-54
2022/11/24 04:46:52;;;;;;;225.07;51.17;;;;;;;;;;4988238;28;20216;-53
2022/11/24 04:49:21;;;;;;;406.73;86.13;;;;;;;;;;4984905;28;20577;-54
2022/11/24 04:51:47;;;;;;;193.47;43.03;;;;;;;;;;4989973;28;22659;-54
2022/11/24 04:54:14;;;;;;;377.07;98.73;;;;;;;;;;4988251;28;20766;-54
2022/11/24 04:56:40;;;;;;;200.13;46.23;;;;;;;;;;4985187;28;20221;-55
2022/11/24 04:59:06;;;;;;;299.60;64.10;;;;;;;;;;4992675;28;20209;-54
2022/11/24 05:01:32;;;;;;;353.43;79.57;;;;;;;;;;4984682;28;20283;-54
2022/11/24 05:03:58;;;;;;;257.87;58.73;;;;;;;;;;4981417;28;20650;-55
2022/11/24 05:06:25;;;;;;;306.20;65.23;;;;;;;;;;4985694;28;20212;-54
2022/11/24 05:08:51;;;;;;;189.33;44.83;;;;;;;;;;4997153;28;20181;-54
2022/11/24 05:11:18;;;;;;;346.23;80.40;;;;;;;;;;4979307;28;21231;-54
2022/11/24 05:13:44;;;;;;;381.47;86.07;;;;;;;;;;4986162;28;20223;-54
2022/11/24 05:16:11;;;;;;;459.83;108.60;;;;;;;;;;4982228;28;21500;-54
2022/11/24 05:18:38;;;;;;;245.37;55.20;;;;;;;;;;4993980;28;20697;-54
2022/11/24 05:21:04;;;;;;;353.63;79.63;;;;;;;;;;4997557;28;20242;-55
2022/11/24 05:23:33;;;;;;;429.00;100.47;;;;;;;;;;5005109;28;20275;-54
2022/11/24 05:26:02;;;;;;;329.07;69.70;;;;;;;;;;5006351;28;20698;-55
2022/11/24 05:28:28;;;;;;;332.80;77.17;;;;;;;;;;5016053;28;21147;-55
2022/11/24 05:30:57;;;;;;;199.10;46.47;;;;;;;;;;5010796;28;20472;-54
2022/11/24 05:33:27;;;;;;;367.90;83.80;;;;;;;;;;5010400;28;20421;-54
2022/11/24 05:35:54;;;;;;;271.43;63.00;;;;;;;;;;4984493;28;20216;-54
2022/11/24 05:38:22;;;;;;;495.60;109.70;;;;;;;;;;4993967;28;20219;-55
2022/11/24 05:40:48;;;;;;;317.17;70.53;;;;;;;;;;5003308;28;20335;-54
2022/11/24 05:43:15;;;;;;;341.10;84.00;;;;;;;;;;4987696;28;20453;-54
2022/11/24 05:45:41;;;;;;;392.20;93.30;;;;;;;;;;4982754;28;20262;-54
2022/11/24 05:48:09;;;;;;;279.97;59.53;;;;;;;;;;4992586;28;20819;-54
2022/11/24 05:50:35;;;;;;;395.87;94.67;;;;;;;;;;4986174;28;20212;-54
2022/11/24 05:53:03;;;;;;;320.90;72.30;;;;;;;;;;4989211;28;20232;-54
2022/11/24 05:55:29;;;;;;;245.63;50.23;;;;;;;;;;5003022;28;20224;-54
2022/11/24 05:58:13;;;;;;;272.57;56.50;;;;;;;;;;5000035;28;20220;-52
2022/11/24 06:00:39;;;;;;;403.30;80.03;;;;;;;;;;4998036;28;20434;-53
2022/11/24 06:03:06;;;;;;;308.17;63.23;;;;;;;;;;5002518;28;20205;-52
2022/11/24 06:05:32;;;;;;;282.83;61.87;;;;;;;;;;5006965;28;20209;-52
2022/11/24 06:07:59;;;;;;;298.13;68.30;;;;;;;;;;5001624;28;20230;-52
2022/11/24 06:10:25;;;;;;;308.10;66.43;;;;;;;;;;4999922;28;20213;-53
2022/11/24 06:12:51;;;;;;;198.10;44.17;;;;;;;;;;4998876;28;20751;-54
2022/11/24 06:15:17;;;;;;;346.70;81.20;;;;;;;;;;4974172;28;20565;-54
2022/11/24 06:17:43;;;;;;;295.07;65.20;;;;;;;;;;5003143;28;20196;-54
2022/11/24 06:20:10;;;;;;;253.53;57.27;;;;;;;;;;4989716;28;20224;-56
2022/11/24 06:22:36;;;;;;;381.17;88.07;;;;;;;;;;4983735;28;21371;-54
2022/11/24 06:25:03;;;;;;;351.17;83.93;;;;;;;;;;4977070;28;20646;-55
2022/11/24 06:27:29;;;;;;;319.83;75.87;;;;;;;;;;5000736;28;20453;-54
2022/11/24 06:29:55;;;;;;;232.07;57.03;;;;;;;;;;4988707;28;20181;-54
2022/11/24 06:32:22;;;;;;;348.77;85.67;;;;;;;;;;4975776;28;20228;-54
2022/11/24 06:34:48;;;;;;;393.33;99.27;;;;;;;;;;4980004;28;20669;-54
2022/11/24 06:37:14;;;;;;;467.33;103.13;;;;;;;;;;4992897;28;21114;-53
2022/11/24 06:39:40;;;;;;;437.90;101.43;;;;;;;;;;4961810;28;20227;-54
2022/11/24 06:42:06;;;;;;;346.73;82.97;;;;;;;;;;5010883;28;20251;-54
2022/11/24 06:44:32;;;;;;;380.17;81.53;;;;;;;;;;5003860;28;20745;-58
2022/11/24 06:46:58;;;;;;;364.17;73.67;;;;;;;;;;4988977;28;20208;-53
2022/11/24 06:49:24;;;;;;;406.13;87.00;;;;;;;;;;4996936;28;20217;-54
2022/11/24 06:51:50;;;;;;;219.00;51.07;;;;;;;;;;5004030;28;20307;-53
2022/11/24 06:54:19;;;;;;;434.87;106.03;;;;;;;;;;5002741;28;20283;-54
2022/11/24 06:56:46;;;;;;;442.03;96.27;;;;;;;;;;5011377;28;20191;-54
2022/11/24 06:59:19;;;;;;;395.17;78.63;;;;;;;;;;5001115;28;20263;-54
2022/11/24 07:01:46;;;;;;;342.13;80.10;;;;;;;;;;4988612;28;20279;-54
2022/11/24 07:04:12;;;;;;;334.90;75.97;;;;;;;;;;4999711;28;20220;-57
2022/11/24 07:06:41;;;;;;;398.23;99.67;;;;;;;;;;4963922;28;20250;-54
2022/11/24 07:09:08;;;;;;;342.30;83.97;;;;;;;;;;4989217;28;20199;-54
2022/11/24 07:11:34;;;;;;;338.30;77.30;;;;;;;;;;5004560;28;20582;-54
2022/11/24 07:14:01;;;;;;;272.90;61.60;;;;;;;;;;4989515;28;21416;-54
2022/11/24 07:16:27;;;;;;;206.57;45.53;;;;;;;;;;4992442;28;20327;-54
2022/11/24 07:18:53;;;;;;;326.23;73.80;;;;;;;;;;4994393;28;20227;-54
2022/11/24 07:21:20;;;;;;;337.30;69.53;;;;;;;;;;4982158;28;20188;-53
2022/11/24 07:23:50;;;;;;;302.83;66.83;;;;;;;;;;4984201;28;20236;-54
2022/11/24 07:26:17;;;;;;;351.13;80.20;;;;;;;;;;4990502;28;20225;-54
2022/11/24 07:28:43;;;;;;;262.07;56.67;;;;;;;;;;4981644;28;20217;-52
2022/11/24 07:31:13;;;;;;;424.27;104.57;;;;;;;;;;4988629;28;21853;-51
2022/11/24 07:33:39;;;;;;;402.00;88.23;;;;;;;;;;5003275;28;20279;-52
2022/11/24 07:36:06;;;;;;;477.30;101.10;;;;;;;;;;4990424;28;20673;-51
2022/11/24 07:38:32;;;;;;;315.47;66.27;;;;;;;;;;4997418;28;20205;-51
2022/11/24 07:41:00;;;;;;;370.10;76.70;;;;;;;;;;4994488;28;20345;-53
2022/11/24 07:43:26;;;;;;;434.87;93.40;;;;;;;;;;4993274;28;20872;-54
2022/11/24 07:45:54;;;;;;;292.30;62.43;;;;;;;;;;4987482;28;20236;-54
2022/11/24 07:48:21;;;;;;;512.10;110.57;;;;;;;;;;4992477;28;20184;-54
2022/11/24 07:50:47;;;;;;;303.90;62.57;;;;;;;;;;4989822;28;20295;-54
2022/11/24 07:53:13;;;;;;;247.13;54.33;;;;;;;;;;5009396;28;20307;-53
2022/11/24 07:55:39;;;;;;;381.60;96.80;;;;;;;;;;4960622;28;20311;-53
2022/11/24 07:58:05;;;;;;;317.10;69.20;;;;;;;;;;4987243;28;20725;-53
2022/11/24 08:00:31;;;;;;;392.23;83.33;;;;;;;;;;4986216;28;20836;-54
2022/11/24 08:02:58;;;;;;;218.50;50.73;;;;;;;;;;4977204;28;20730;-53
2022/11/24 08:05:27;;;;;;;443.33;111.90;;;;;;;;;;4991887;28;20217;-53
2022/11/24 08:07:53;;;;;;;367.80;82.33;;;;;;;;;;4987820;28;20251;-54
2022/11/24 08:10:19;;;;;;;284.30;59.37;;;;;;;;;;4983475;28;20251;-54
2022/11/24 08:12:45;;;;;;;308.27;73.30;;;;;;;;;;4989828;28;20224;-53
2022/11/24 08:15:12;;;;;;;238.23;53.00;;;;;;;;;;4993934;28;20249;-54
2022/11/24 08:17:38;;;;;;;316.80;65.17;;;;;;;;;;4997745;28;20244;-54
2022/11/24 08:20:07;;;;;;;235.97;54.10;;;;;;;;;;4991952;28;20244;-54
2022/11/24 08:22:34;;;;;;;266.17;61.23;;;;;;;;;;4985723;28;20217;-54
2022/11/24 08:25:03;;;;;;;238.00;51.80;;;;;;;;;;4988744;28;20297;-54
2022/11/24 08:27:30;;;;;;;357.53;78.30;;;;;;;;;;4998915;28;20185;-54
2022/11/24 08:29:56;;;;;;;406.90;96.67;;;;;;;;;;4985593;28;20185;-54
2022/11/24 08:32:22;;;;;;;460.90;116.13;;;;;;;;;;4978733;28;20700;-54
2022/11/24 08:34:51;;;;;;;247.87;54.53;;;;;;;;;;4962766;28;23880;-53
2022/11/24 08:37:17;;;;;;;265.87;58.50;;;;;;;;;;4990697;28;20878;-55
2022/11/24 08:39:43;;;;;;;339.07;71.70;;;;;;;;;;4994094;28;20244;-54
2022/11/24 08:42:09;;;;;;;433.33;108.47;;;;;;;;;;4990454;28;20811;-54
2022/11/24 08:44:35;;;;;;;457.50;118.90;;;;;;;;;;4975915;28;20252;-53
2022/11/24 08:47:01;;;;;;;423.43;92.27;;;;;;;;;;4963139;28;20629;-53
2022/11/24 08:49:28;;;;;;;421.10;98.63;;;;;;;;;;4951966;28;20252;-54
2022/11/24 08:51:56;;;;;;;260.87;61.97;;;;;;;;;;4959876;28;20244;-54
2022/11/24 08:54:22;;;;;;;418.90;94.07;;;;;;;;;;4984984;28;20197;-54
2022/11/24 08:56:48;;;;;;;400.27;89.60;;;;;;;;;;4995610;28;20704;-54
2022/11/24 08:59:15;;;;;;;418.03;100.47;;;;;;;;;;4974384;28;20635;-54
2022/11/24 09:01:41;;;;;;;337.87;78.10;;;;;;;;;;4981883;28;20223;-52
2022/11/24 09:04:07;;;;;;;212.03;47.47;;;;;;;;;;5009619;28;20224;-53
2022/11/24 09:06:35;;;;;;;355.97;85.50;;;;;;;;;;4995698;28;20708;-54
2022/11/24 09:09:02;;;;;;;373.60;85.93;;;;;;;;;;4992590;28;20189;-53
2022/11/24 09:11:28;;;;;;;244.03;57.03;;;;;;;;;;4997424;28;20326;-54
2022/11/24 09:13:54;;;;;;;327.63;69.10;;;;;;;;;;5009916;28;20732;-53
2022/11/24 09:16:21;;;;;;;300.07;63.97;;;;;;;;;;5001164;28;20220;-53
2022/11/24 09:18:48;;;;;;;257.93;59.93;;;;;;;;;;4997485;28;20619;-53
2022/11/24 09:21:18;;;;;;;300.13;67.13;;;;;;;;;;4997776;28;20291;-53
2022/11/24 09:23:48;;;;;;;386.77;91.03;;;;;;;;;;4997608;28;20593;-54
2022/11/24 09:26:15;;;;;;;172.43;39.90;;;;;;;;;;4997050;28;20233;-53
2022/11/24 09:28:42;;;;;;;256.70;56.97;;;;;;;;;;4995140;28;20217;-53
2022/11/24 09:31:09;;;;;;;202.40;46.23;;;;;;;;;;4993287;28;21190;-53
2022/11/24 09:33:39;;;;;;;347.90;75.17;;;;;;;;;;4989068;28;20259;-53
2022/11/24 09:36:06;;;;;;;293.80;69.70;;;;;;;;;;4997976;28;20282;-53
2022/11/24 09:38:32;;;;;;;344.33;70.80;;;;;;;;;;5004645;28;20260;-54
2022/11/24 09:41:25;;;;;;;199.77;46.47;;;;;;;;;;5002186;28;20548;-53
2022/11/24 09:43:57;;;;;;;327.50;76.30;;;;;;;;;;4994647;28;20681;-54
2022/11/24 09:46:30;;;;;;;311.27;69.77;;;;;;;;;;5000830;28;20245;-53
2022/11/24 09:48:57;;;;;;;246.70;56.10;;;;;;;;;;5012075;28;20213;-54
2022/11/24 09:51:25;;;;;;;251.10;56.93;;;;;;;;;;4997378;28;20616;-53
2022/11/24 09:54:10;;;;;;;311.27;72.97;;;;;;;;;;4999903;28;20207;-54
2022/11/24 09:56:38;;;;;;;149.90;35.00;;;;;;;;;;5000157;28;20221;-54
2022/11/24 09:59:07;;;;;;;331.37;74.07;;;;;;;;;;4997762;28;20776;-53
2022/11/24 10:01:35;;;;;;;265.53;57.93;;;;;;;;;;4999092;28;20256;-54
2022/11/24 10:04:03;;;;;;;232.63;53.13;;;;;;;;;;4998684;28;20468;-54
2022/11/24 10:06:37;;;;;;;284.83;65.90;;;;;;;;;;5002754;28;20192;-54
2022/11/24 10:09:15;;;;;;;325.33;69.97;;;;;;;;;;5000765;28;20698;-54
2022/11/24 10:11:55;;;;;;;226.70;49.93;;;;;;;;;;5000221;28;20227;-54
2022/11/24 10:14:36;;;;;;;303.63;67.77;;;;;;;;;;4998243;28;20598;-54
2022/11/24 10:17:11;;;;;;;284.23;69.27;;;;;;;;;;4995396;28;20220;-54
2022/11/24 10:19:47;;;;;;;408.63;97.70;;;;;;;;;;5014870;28;20228;-53
2022/11/24 10:22:22;;;;;;;216.27;54.30;;;;;;;;;;4997234;28;20251;-53
2022/11/24 10:25:08;;;;;;;217.63;48.67;;;;;;;;;;5018635;28;20307;-54
2022/11/24 10:27:37;;;;;;;306.73;69.30;;;;;;;;;;4999141;28;20185;-54
2022/11/24 10:30:23;;;;;;;370.67;82.47;;;;;;;;;;5012622;28;20295;-54
2022/11/24 10:33:12;;;;;;;261.73;62.03;;;;;;;;;;4999465;28;21281;-54
2022/11/24 10:35:45;;;;;;;243.77;57.13;;;;;;;;;;4995837;28;20686;-54
2022/11/24 10:38:49;;;;;;;367.73;82.30;;;;;;;;;;5003955;28;20597;-53
2022/11/24 10:41:25;;;;;;;171.47;40.00;;;;;;;;;;4943373;28;20225;-54
2022/11/24 10:43:52;;;;;;;285.20;61.43;;;;;;;;;;4950943;28;20221;-54
2022/11/24 10:46:21;;;;;;;261.47;57.43;;;;;;;;;;4977461;28;20224;-53
2022/11/24 10:48:49;;;;;;;300.63;68.47;;;;;;;;;;4995749;28;20217;-54
2022/11/24 10:51:35;;;;;;;357.37;83.83;;;;;;;;;;4999666;28;20178;-53
2022/11/24 10:54:09;;;;;;;224.67;54.93;;;;;;;;;;5001050;28;20244;-53
2022/11/24 10:56:40;;;;;;;299.60;66.93;;;;;;;;;;4999411;28;20225;-53
2022/11/24 10:59:24;;;;;;;322.17;76.77;;;;;;;;;;4999104;28;20216;-54
2022/11/24 11:01:51;;;;;;;176.80;40.37;;;;;;;;;;5001533;28;20247;-54
2022/11/24 11:04:27;;;;;;;332.30;72.27;;;;;;;;;;4999756;28;20291;-53
2022/11/24 11:07:14;;;;;;;296.03;68.93;;;;;;;;;;4993109;28;21143;-54
2022/11/24 11:09:40;;;;;;;427.97;105.70;;;;;;;;;;4992664;28;20613;-54
2022/11/24 11:12:10;;;;;;;506.40;135.90;;;;;;;;;;4963671;28;20200;-57
2022/11/24 11:14:36;;;;;;;338.67;84.00;;;;;;;;;;4969759;28;20590;-57
2022/11/24 11:17:04;;;;;;;471.77;110.53;;;;;;;;;;4976186;28;20545;-57
2022/11/24 11:19:32;;;;;;;335.93;76.83;;;;;;;;;;4972631;28;20212;-54
2022/11/24 11:22:03;;;;;;;131.10;32.87;;;;;;;;;;4998032;28;20804;-53
2022/11/24 11:24:29;;;;;;;323.37;71.70;;;;;;;;;;4999682;28;20184;-54
2022/11/24 11:27:00;;;;;;;340.70;74.57;;;;;;;;;;4998949;28;20185;-53
2022/11/24 11:29:27;;;;;;;154.30;36.37;;;;;;;;;;5000242;28;20212;-54
2022/11/24 11:32:01;;;;;;;293.13;63.17;;;;;;;;;;5001077;28;20628;-54
2022/11/24 11:34:30;;;;;;;362.20;82.27;;;;;;;;;;4996724;28;20835;-54
2022/11/24 11:36:58;;;;;;;277.40;59.47;;;;;;;;;;4998929;28;20212;-54
2022/11/24 11:39:43;;;;;;;210.97;47.67;;;;;;;;;;4997400;28;20231;-54
2022/11/24 11:42:21;;;;;;;399.53;83.67;;;;;;;;;;4997529;28;20204;-54
2022/11/24 11:44:53;;;;;;;303.70;67.87;;;;;;;;;;5011783;28;20285;-54
2022/11/24 11:47:37;;;;;;;441.87;93.37;;;;;;;;;;5014465;28;20224;-53
2022/11/24 11:50:10;;;;;;;357.20;70.23;;;;;;;;;;5002059;28;20221;-54
2022/11/24 11:52:55;;;;;;;356.60;76.07;;;;;;;;;;4999984;28;20224;-54
2022/11/24 11:55:37;;;;;;;341.90;69.00;;;;;;;;;;4997487;28;20225;-54
2022/11/24 11:58:23;;;;;;;226.07;50.87;;;;;;;;;;4992759;28;20223;-54
2022/11/24 12:00:54;;;;;;;472.90;100.73;;;;;;;;;;4993123;28;20213;-53
2022/11/24 12:03:32;;;;;;;263.20;57.50;;;;;;;;;;4998815;28;20266;-54
2022/11/24 12:06:09;;;;;;;440.37;91.20;;;;;;;;;;5005526;28;20338;-54
2022/11/24 12:08:52;;;;;;;329.87;63.63;;;;;;;;;;5004494;28;20322;-54
2022/11/24 12:11:22;;;;;;;336.87;66.97;;;;;;;;;;5009197;28;20469;-54
2022/11/24 12:14:05;;;;;;;223.03;48.50;;;;;;;;;;5006341;28;20275;-54
2022/11/24 12:16:44;;;;;;;276.03;58.20;;;;;;;;;;5005939;28;20228;-53
2022/11/24 12:19:25;;;;;;;477.90;95.33;;;;;;;;;;5003907;28;20232;-53
2022/11/24 12:21:59;;;;;;;297.80;62.83;;;;;;;;;;5001751;28;20216;-53
2022/11/24 12:24:36;;;;;;;414.47;94.13;;;;;;;;;;5001296;28;20648;-54
2022/11/24 12:27:15;;;;;;;317.70;63.03;;;;;;;;;;4995517;28;20176;-54
2022/11/24 12:29:44;;;;;;;329.87;74.33;;;;;;;;;;5011087;28;20680;-54
2022/11/24 12:32:16;;;;;;;341.77;70.17;;;;;;;;;;5001756;28;20310;-54
2022/11/24 12:35:12;;;;;;;395.47;83.80;;;;;;;;;;5000969;28;20209;-56
2022/11/24 12:37:51;;;;;;;382.57;81.73;;;;;;;;;;5002196;28;20217;-53
2022/11/24 12:40:27;;;;;;;311.73;61.80;;;;;;;;;;4996685;28;20717;-54
2022/11/24 12:43:01;;;;;;;326.67;69.53;;;;;;;;;;5002190;28;20208;-54
2022/11/24 12:45:35;;;;;;;228.73;54.77;;;;;;;;;;5013721;28;20296;-53
2022/11/24 12:48:13;;;;;;;322.67;70.83;;;;;;;;;;5000452;28;20184;-54
2022/11/24 12:50:41;;;;;;;469.00;94.13;;;;;;;;;;4999735;28;20308;-54
2022/11/24 12:53:22;;;;;;;453.93;91.47;;;;;;;;;;5006301;28;20239;-54
2022/11/24 12:55:48;;;;;;;185.87;43.20;;;;;;;;;;5000534;28;20338;-54
2022/11/24 12:58:17;;;;;;;373.80;71.80;;;;;;;;;;5002012;28;20205;-54
2022/11/24 13:00:53;;;;;;;370.77;72.00;;;;;;;;;;5002391;28;20276;-54
2022/11/24 13:03:38;;;;;;;333.97;69.77;;;;;;;;;;5000826;28;20201;-54
2022/11/24 13:06:17;;;;;;;185.60;40.30;;;;;;;;;;5003629;28;20188;-54
2022/11/24 13:08:43;;;;;;;410.60;87.67;;;;;;;;;;5003465;28;20715;-55
2022/11/24 13:11:21;;;;;;;401.90;78.57;;;;;;;;;;5001339;28;20208;-54
2022/11/24 13:14:00;;;;;;;274.40;63.17;;;;;;;;;;5006652;28;20296;-54
2022/11/24 13:16:26;;;;;;;216.00;46.10;;;;;;;;;;5001157;28;20228;-54
2022/11/24 13:18:55;;;;;;;432.83;80.37;;;;;;;;;;5004459;28;20305;-54
2022/11/24 13:21:28;;;;;;;340.40;71.00;;;;;;;;;;5001786;28;20271;-54
2022/11/24 13:24:05;;;;;;;438.20;81.17;;;;;;;;;;5004555;28;20286;-54
2022/11/24 13:26:47;;;;;;;199.13;42.10;;;;;;;;;;5008313;28;20212;-54
2022/11/24 13:29:32;;;;;;;329.13;61.17;;;;;;;;;;5006712;28;20950;-54
2022/11/24 13:32:04;;;;;;;203.83;43.67;;;;;;;;;;5006374;28;20250;-54
2022/11/24 13:34:39;;;;;;;420.20;81.67;;;;;;;;;;5005531;28;20660;-54
2022/11/24 13:37:26;;;;;;;312.20;61.60;;;;;;;;;;5005676;28;20534;-54
2022/11/24 13:39:59;;;;;;;361.17;70.47;;;;;;;;;;5001266;28;20219;-54
2022/11/24 13:42:26;;;;;;;434.20;88.23;;;;;;;;;;5013804;28;20691;-54
2022/11/24 13:44:59;;;;;;;190.20;42.23;;;;;;;;;;5017678;28;20208;-54
2022/11/24 13:47:34;;;;;;;226.43;47.17;;;;;;;;;;5006499;28;20299;-54
2022/11/24 13:50:01;;;;;;;282.23;58.67;;;;;;;;;;5011182;28;20212;-54
2022/11/24 13:52:39;;;;;;;388.90;76.10;;;;;;;;;;5012897;28;20216;-54
2022/11/24 13:55:11;;;;;;;367.80;72.80;;;;;;;;;;5010441;28;20213;-54
2022/11/24 13:57:41;;;;;;;330.53;64.40;;;;;;;;;;5010708;28;20676;-54
2022/11/24 14:00:24;;;;;;;202.20;43.23;;;;;;;;;;5019512;28;20168;-54
2022/11/24 14:02:51;;;;;;;295.33;57.07;;;;;;;;;;5010200;28;20232;-54
2022/11/24 14:05:18;;;;;;;415.20;80.33;;;;;;;;;;5008492;28;20228;-54
2022/11/24 14:07:45;;;;;;;321.40;66.57;;;;;;;;;;5013266;28;20221;-54
2022/11/24 14:10:15;;;;;;;351.00;72.13;;;;;;;;;;5013121;28;20715;-54
2022/11/24 14:12:42;;;;;;;291.83;58.70;;;;;;;;;;5012507;28;20282;-54
2022/11/24 14:15:21;;;;;;;445.33;96.07;;;;;;;;;;5004313;28;20231;-54